createdAt,value
2022-07-29T00:02:16.933Z,8.85
2022-07-29T00:04:43.725Z,8.15
2022-07-29T00:07:10.466Z,6.00
2022-07-29T00:09:41.953Z,5.57
2022-07-29T00:12:25.108Z,5.60
2022-07-29T00:14:56.239Z,5.15
2022-07-29T00:17:26.425Z,5.15
2022-07-29T00:19:53.573Z,6.20
2022-07-29T00:22:20.928Z,6.00
2022-07-29T00:24:50.919Z,7.35
2022-07-29T00:27:18.398Z,7.30
2022-07-29T00:29:45.411Z,7.45
2022-07-29T00:32:12.182Z,6.50
2022-07-29T00:34:57.273Z,6.88
2022-07-29T00:37:24.107Z,6.47
2022-07-29T00:39:51.358Z,6.25
2022-07-29T00:42:18.065Z,6.22
2022-07-29T00:44:44.832Z,6.40
2022-07-29T00:47:12.774Z,6.70
2022-07-29T00:49:41.511Z,7.07
2022-07-29T00:52:10.171Z,6.85
2022-07-29T00:54:39.829Z,6.72
2022-07-29T00:57:12.514Z,6.67
2022-07-29T00:59:39.279Z,6.80
2022-07-29T01:02:06.125Z,8.60
2022-07-29T01:04:33.251Z,8.77
2022-07-29T01:07:02.531Z,6.53
2022-07-29T01:09:42.120Z,7.80
2022-07-29T01:12:14.688Z,7.60
2022-07-29T01:14:42.052Z,7.85
2022-07-29T01:17:15.038Z,7.13
2022-07-29T01:20:00.545Z,6.68
2022-07-29T01:22:50.393Z,7.30
2022-07-29T01:25:46.547Z,6.65
2022-07-29T01:28:36.017Z,7.50
2022-07-29T01:31:06.284Z,7.63
2022-07-29T01:33:51.453Z,8.35
2022-07-29T01:36:30.077Z,7.83
2022-07-29T01:39:15.288Z,8.07
2022-07-29T01:41:51.723Z,7.60
2022-07-29T01:44:27.970Z,7.80
2022-07-29T01:46:59.132Z,8.10
2022-07-29T01:49:29.673Z,8.43
2022-07-29T01:52:12.089Z,7.85
2022-07-29T01:54:46.844Z,7.82
2022-07-29T01:57:18.344Z,7.60
2022-07-29T01:59:47.861Z,7.72
2022-07-29T02:02:17.429Z,8.33
2022-07-29T02:04:49.351Z,8.30
2022-07-29T02:07:20.460Z,8.57
2022-07-29T02:09:50.270Z,8.77
2022-07-29T02:12:20.120Z,8.73
2022-07-29T02:14:50.088Z,9.93
2022-07-29T02:17:23.557Z,10.07
2022-07-29T02:19:51.258Z,10.43
2022-07-29T02:22:20.651Z,10.35
2022-07-29T02:24:50.241Z,10.43
2022-07-29T02:27:18.924Z,11.20
2022-07-29T02:29:48.299Z,11.38
2022-07-29T02:32:17.041Z,11.45
2022-07-29T02:34:45.732Z,12.02
2022-07-29T02:37:13.842Z,11.95
2022-07-29T02:39:43.170Z,11.60
2022-07-29T02:42:18.222Z,11.15
2022-07-29T02:44:45.133Z,11.10
2022-07-29T02:47:16.355Z,11.40
2022-07-29T02:50:03.562Z,11.10
2022-07-29T02:52:38.859Z,12.03
2022-07-29T02:55:20.531Z,12.07
2022-07-29T02:58:02.418Z,11.50
2022-07-29T03:00:32.465Z,10.93
2022-07-29T03:03:04.365Z,12.52
2022-07-29T03:05:32.344Z,11.50
2022-07-29T03:08:03.889Z,11.48
2022-07-29T03:10:32.089Z,11.73
2022-07-29T03:13:00.735Z,11.23
2022-07-29T03:15:28.190Z,16.63
2022-07-29T03:17:56.592Z,12.50
2022-07-29T03:20:23.981Z,11.32
2022-07-29T03:22:51.081Z,10.77
2022-07-29T03:25:20.003Z,11.48
2022-07-29T03:27:48.176Z,11.30
2022-07-29T03:30:21.746Z,11.90
2022-07-29T03:32:52.223Z,12.23
2022-07-29T03:35:20.625Z,12.60
2022-07-29T03:37:47.743Z,11.82
2022-07-29T03:40:20.842Z,12.10
2022-07-29T03:42:49.468Z,10.60
2022-07-29T03:45:19.695Z,9.85
2022-07-29T03:48:01.198Z,10.55
2022-07-29T03:50:29.934Z,10.07
2022-07-29T03:52:56.848Z,11.70
2022-07-29T03:55:24.421Z,11.10
2022-07-29T03:57:53.324Z,11.40
2022-07-29T04:00:20.553Z,12.52
2022-07-29T04:02:49.434Z,11.50
2022-07-29T04:05:17.339Z,12.18
2022-07-29T04:07:47.961Z,11.80
2022-07-29T04:10:16.648Z,12.00
2022-07-29T04:12:43.712Z,12.23
2022-07-29T04:15:11.031Z,11.95
2022-07-29T04:17:37.931Z,11.40
2022-07-29T04:20:05.613Z,12.67
2022-07-29T04:22:32.332Z,12.27
2022-07-29T04:25:03.357Z,12.35
2022-07-29T04:27:30.843Z,12.15
2022-07-29T04:29:57.797Z,12.10
2022-07-29T04:32:25.751Z,13.37
2022-07-29T04:34:52.429Z,12.98
2022-07-29T04:37:19.273Z,14.25
2022-07-29T04:39:45.919Z,14.88
2022-07-29T04:42:12.597Z,14.02
2022-07-29T04:44:42.840Z,13.90
2022-07-29T04:47:10.155Z,13.80
2022-07-29T04:49:39.567Z,14.55
2022-07-29T04:52:07.594Z,14.70
2022-07-29T04:54:34.490Z,13.82
2022-07-29T04:57:01.183Z,13.60
2022-07-29T04:59:28.039Z,12.30
2022-07-29T05:01:54.958Z,12.15
2022-07-29T05:04:21.754Z,11.68
2022-07-29T05:06:48.844Z,11.20
2022-07-29T05:09:15.629Z,10.43
2022-07-29T05:11:42.334Z,10.73
2022-07-29T05:14:09.088Z,9.63
2022-07-29T05:16:36.096Z,9.60
2022-07-29T05:19:02.809Z,10.00
2022-07-29T05:21:29.517Z,9.23
2022-07-29T05:23:56.308Z,9.80
2022-07-29T05:26:23.157Z,9.90
2022-07-29T05:28:50.090Z,9.35
2022-07-29T05:31:16.851Z,8.35
2022-07-29T05:33:43.654Z,8.30
2022-07-29T05:36:10.476Z,8.20
2022-07-29T05:38:37.525Z,9.05
2022-07-29T05:41:07.742Z,8.30
2022-07-29T05:43:34.451Z,7.95
2022-07-29T05:46:01.484Z,7.73
2022-07-29T05:48:28.303Z,7.90
2022-07-29T05:50:55.781Z,7.43
2022-07-29T05:53:22.781Z,7.65
2022-07-29T05:55:49.885Z,7.00
2022-07-29T05:58:17.143Z,7.23
2022-07-29T06:00:44.180Z,6.50
2022-07-29T06:03:10.861Z,7.00
2022-07-29T06:05:37.936Z,6.22
2022-07-29T06:08:06.759Z,6.35
2022-07-29T06:10:33.782Z,6.47
2022-07-29T06:13:00.572Z,7.10
2022-07-29T06:15:27.429Z,7.25
2022-07-29T06:17:59.048Z,6.60
2022-07-29T06:20:27.796Z,6.93
2022-07-29T06:22:54.532Z,5.80
2022-07-29T06:25:21.313Z,5.97
2022-07-29T06:27:47.997Z,5.57
2022-07-29T06:30:14.930Z,5.90
2022-07-29T06:32:43.316Z,5.10
2022-07-29T06:35:38.346Z,5.30
2022-07-29T06:37:59.512Z,5.13
2022-07-29T06:40:45.739Z,5.22
2022-07-29T06:43:12.529Z,4.70
2022-07-29T06:45:42.283Z,4.72
2022-07-29T06:48:10.497Z,5.30
2022-07-29T06:50:37.224Z,5.70
2022-07-29T06:53:05.081Z,5.88
2022-07-29T06:55:31.870Z,6.05
2022-07-29T06:57:58.517Z,5.07
2022-07-29T07:00:26.299Z,5.83
2022-07-29T07:02:53.050Z,5.60
2022-07-29T07:05:19.786Z,5.43
2022-07-29T07:07:46.499Z,5.85
2022-07-29T07:10:13.204Z,6.18
2022-07-29T07:12:39.894Z,5.93
2022-07-29T07:15:07.186Z,6.20
2022-07-29T07:17:33.929Z,5.97
2022-07-29T07:20:00.618Z,6.38
2022-07-29T07:22:27.308Z,7.03
2022-07-29T07:24:53.946Z,6.17
2022-07-29T07:27:20.650Z,7.00
2022-07-29T07:29:47.357Z,6.80
2022-07-29T07:32:14.518Z,6.32
2022-07-29T07:34:41.392Z,6.50
2022-07-29T07:37:08.128Z,5.97
2022-07-29T07:39:34.885Z,6.82
2022-07-29T07:42:01.667Z,7.00
2022-07-29T07:44:28.391Z,6.93
2022-07-29T07:46:55.171Z,7.00
2022-07-29T07:49:22.264Z,6.10
2022-07-29T07:51:50.680Z,6.18
2022-07-29T07:54:18.922Z,6.30
2022-07-29T07:56:50.321Z,6.35
2022-07-29T07:59:20.215Z,6.05
2022-07-29T08:01:48.193Z,6.20
2022-07-29T08:04:27.681Z,6.00
2022-07-29T08:06:56.483Z,6.28
2022-07-29T08:09:29.666Z,6.38
2022-07-29T08:11:59.134Z,6.10
2022-07-29T08:14:26.078Z,5.50
2022-07-29T08:16:52.858Z,5.72
2022-07-29T08:19:19.685Z,5.72
2022-07-29T08:21:46.544Z,5.70
2022-07-29T08:24:32.090Z,5.45
2022-07-29T08:26:59.188Z,5.60
2022-07-29T08:29:25.934Z,5.65
2022-07-29T08:31:52.898Z,5.90
2022-07-29T08:34:19.776Z,5.70
2022-07-29T08:36:54.434Z,5.78
2022-07-29T08:39:21.101Z,5.57
2022-07-29T08:41:57.186Z,5.60
2022-07-29T08:44:29.724Z,5.50
2022-07-29T08:46:57.926Z,5.50
2022-07-29T08:49:24.679Z,6.00
2022-07-29T08:51:52.558Z,5.70
2022-07-29T08:54:19.860Z,5.72
2022-07-29T08:56:50.911Z,5.78
2022-07-29T08:59:22.068Z,5.82
2022-07-29T09:01:53.680Z,5.47
2022-07-29T09:04:21.930Z,5.27
2022-07-29T09:06:52.208Z,5.47
2022-07-29T09:09:19.129Z,5.18
2022-07-29T09:11:45.924Z,5.07
2022-07-29T09:14:14.310Z,5.35
2022-07-29T09:16:57.854Z,5.40
2022-07-29T09:19:34.402Z,5.10
2022-07-29T09:22:03.859Z,5.18
2022-07-29T09:24:48.226Z,5.20
2022-07-29T09:27:23.458Z,5.20
2022-07-29T09:30:11.576Z,5.50
2022-07-29T09:32:59.216Z,5.25
2022-07-29T09:35:27.010Z,5.30
2022-07-29T09:37:53.920Z,5.22
2022-07-29T09:40:26.391Z,5.07
2022-07-29T09:42:56.483Z,4.70
2022-07-29T09:45:34.153Z,4.90
2022-07-29T09:48:15.066Z,4.82
2022-07-29T09:50:44.981Z,4.82
2022-07-29T09:53:12.335Z,4.65
2022-07-29T09:55:52.204Z,5.10
2022-07-29T09:58:23.561Z,5.18
2022-07-29T10:00:51.833Z,5.00
2022-07-29T10:03:19.043Z,4.53
2022-07-29T10:05:46.830Z,4.70
2022-07-29T10:08:13.861Z,4.73
2022-07-29T10:10:44.522Z,4.00
2022-07-29T10:13:16.402Z,4.60
2022-07-29T10:15:46.056Z,4.18
2022-07-29T10:18:14.994Z,4.40
2022-07-29T10:20:42.431Z,4.00
2022-07-29T10:23:10.227Z,4.10
2022-07-29T10:25:37.101Z,3.90
2022-07-29T10:28:04.061Z,4.00
2022-07-29T10:30:32.179Z,3.90
2022-07-29T10:33:26.902Z,4.10
2022-07-29T10:36:02.605Z,3.70
2022-07-29T10:38:45.958Z,4.03
2022-07-29T10:41:43.567Z,3.53
2022-07-29T10:44:19.320Z,4.40
2022-07-29T10:46:51.534Z,4.40
2022-07-29T10:49:18.323Z,4.50
2022-07-29T10:51:51.200Z,4.07
2022-07-29T10:54:19.240Z,3.85
2022-07-29T10:56:47.664Z,4.15
2022-07-29T10:59:21.558Z,4.27
2022-07-29T11:01:53.657Z,4.13
2022-07-29T11:04:45.801Z,4.40
2022-07-29T11:07:15.169Z,3.88
2022-07-29T11:09:41.972Z,3.90
2022-07-29T11:12:39.380Z,3.90
2022-07-29T11:15:09.108Z,4.20
2022-07-29T11:17:54.379Z,3.97
2022-07-29T11:20:49.919Z,4.18
2022-07-29T11:23:24.446Z,4.30
2022-07-29T11:26:28.225Z,3.90
2022-07-29T11:29:04.536Z,4.10
2022-07-29T11:31:47.191Z,4.20
2022-07-29T11:34:18.286Z,4.43
2022-07-29T11:37:13.822Z,4.30
2022-07-29T11:39:47.955Z,4.20
2022-07-29T11:42:17.728Z,3.80
2022-07-29T11:48:03.467Z,3.70
2022-07-29T11:50:45.782Z,3.78
2022-07-29T11:53:15.377Z,3.67
2022-07-29T11:55:51.057Z,3.30
2022-07-29T11:58:25.078Z,3.47
2022-07-29T12:00:52.855Z,3.15
2022-07-29T12:03:35.157Z,3.00
2022-07-29T12:06:12.313Z,2.70
2022-07-29T12:08:43.829Z,2.90
2022-07-29T12:11:22.501Z,2.72
2022-07-29T12:13:51.805Z,2.83
2022-07-29T12:16:25.970Z,3.00
2022-07-29T12:19:02.352Z,3.17
2022-07-29T12:21:56.266Z,3.70
2022-07-29T12:24:26.701Z,3.90
2022-07-29T12:26:56.569Z,4.15
2022-07-29T12:29:33.982Z,3.97
2022-07-29T12:32:04.654Z,4.00
2022-07-29T12:34:32.186Z,4.15
2022-07-29T12:36:59.192Z,4.03
2022-07-29T12:39:28.900Z,4.05
2022-07-29T12:42:04.091Z,4.00
2022-07-29T12:44:52.405Z,4.00
2022-07-29T12:47:20.394Z,4.50
2022-07-29T12:49:47.960Z,5.32
2022-07-29T12:52:26.540Z,5.05
2022-07-29T12:54:53.283Z,5.00
2022-07-29T12:57:20.436Z,5.03
2022-07-29T13:00:04.954Z,4.97
2022-07-29T13:02:31.779Z,5.05
2022-07-29T13:05:00.470Z,5.03
2022-07-29T13:07:54.430Z,5.78
2022-07-29T13:10:24.321Z,5.60
2022-07-29T13:13:12.719Z,5.70
2022-07-29T13:15:42.101Z,5.47
2022-07-29T13:18:28.254Z,5.50
2022-07-29T13:20:55.712Z,5.80
2022-07-29T13:23:22.428Z,5.70
2022-07-29T13:25:49.190Z,5.55
2022-07-29T13:28:15.874Z,5.60
2022-07-29T13:30:44.530Z,5.30
2022-07-29T13:33:11.898Z,7.03
2022-07-29T13:35:40.039Z,5.70
2022-07-29T13:38:06.962Z,5.55
2022-07-29T13:40:36.225Z,5.90
2022-07-29T13:43:02.941Z,5.82
2022-07-29T13:45:30.803Z,5.70
2022-07-29T13:47:57.461Z,6.07
2022-07-29T13:50:24.232Z,5.50
2022-07-29T13:52:51.867Z,6.20
2022-07-29T13:55:18.951Z,5.43
2022-07-29T13:57:45.906Z,6.40
2022-07-29T14:00:13.801Z,5.93
2022-07-29T14:02:40.500Z,5.90
2022-07-29T14:05:08.926Z,5.55
2022-07-29T14:07:35.779Z,5.60
2022-07-29T14:10:02.706Z,5.90
2022-07-29T14:12:29.582Z,6.03
2022-07-29T14:14:56.244Z,6.38
2022-07-29T14:17:23.720Z,6.30
2022-07-29T14:19:50.441Z,6.03
2022-07-29T14:22:19.888Z,6.38
2022-07-29T14:24:49.793Z,7.00
2022-07-29T14:27:16.537Z,5.95
2022-07-29T14:29:43.500Z,6.18
2022-07-29T14:32:11.519Z,5.80
2022-07-29T14:34:39.014Z,5.82
2022-07-29T14:37:06.941Z,5.70
2022-07-29T14:39:42.677Z,6.07
2022-07-29T14:42:11.573Z,6.22
2022-07-29T14:44:40.491Z,6.43
2022-07-29T14:47:08.406Z,6.75
2022-07-29T14:49:35.983Z,6.03
2022-07-29T14:52:03.418Z,6.70
2022-07-29T14:54:30.090Z,6.60
2022-07-29T14:56:58.490Z,6.72
2022-07-29T14:59:26.935Z,6.78
2022-07-29T15:01:53.798Z,7.00
2022-07-29T15:04:21.111Z,6.55
2022-07-29T15:06:48.278Z,6.70
2022-07-29T15:09:14.993Z,6.60
2022-07-29T15:11:41.729Z,6.57
2022-07-29T15:14:08.726Z,7.87
2022-07-29T15:16:46.694Z,6.53
2022-07-29T15:19:14.961Z,6.47
2022-07-29T15:21:48.787Z,6.47
2022-07-29T15:24:26.196Z,6.38
2022-07-29T15:26:52.941Z,6.67
2022-07-29T15:29:20.230Z,6.25
2022-07-29T15:31:46.955Z,6.10
2022-07-29T15:34:13.778Z,6.05
2022-07-29T15:36:56.305Z,6.03
2022-07-29T15:39:23.315Z,5.53
2022-07-29T15:41:50.792Z,5.80
2022-07-29T15:44:18.150Z,6.20
2022-07-29T15:47:03.636Z,6.43
2022-07-29T15:49:48.368Z,6.50
2022-07-29T15:52:25.171Z,6.27
2022-07-29T15:54:54.162Z,6.32
2022-07-29T15:57:20.864Z,6.10
2022-07-29T15:59:47.574Z,5.70
2022-07-29T16:02:14.262Z,6.10
2022-07-29T16:04:41.202Z,5.80
2022-07-29T16:07:08.004Z,5.10
2022-07-29T16:09:34.731Z,4.90
2022-07-29T16:12:01.462Z,4.85
2022-07-29T16:14:28.800Z,4.68
2022-07-29T16:16:56.532Z,4.60
2022-07-29T16:19:23.598Z,4.97
2022-07-29T16:21:50.306Z,5.10
2022-07-29T16:24:17.035Z,4.57
2022-07-29T16:26:43.720Z,4.85
2022-07-29T16:29:10.480Z,4.40
2022-07-29T16:31:37.254Z,4.53
2022-07-29T16:34:04.118Z,4.90
2022-07-29T16:36:31.354Z,4.50
2022-07-29T16:38:58.033Z,5.03
2022-07-29T16:41:24.716Z,5.10
2022-07-29T16:43:51.366Z,4.93
2022-07-29T16:46:18.814Z,5.30
2022-07-29T16:48:46.418Z,5.22
2022-07-29T16:51:14.244Z,4.78
2022-07-29T16:53:41.766Z,5.00
2022-07-29T16:56:11.241Z,4.80
2022-07-29T16:58:43.509Z,4.97
2022-07-29T17:01:11.168Z,5.07
2022-07-29T17:04:00.115Z,5.78
2022-07-29T17:06:28.646Z,5.40
2022-07-29T17:08:56.633Z,5.57
2022-07-29T17:11:51.847Z,5.35
2022-07-29T17:14:10.578Z,5.28
2022-07-29T17:16:37.466Z,5.72
2022-07-29T17:19:04.477Z,5.30
2022-07-29T17:21:31.403Z,5.28
2022-07-29T17:23:59.482Z,5.20
2022-07-29T17:26:28.226Z,4.50
2022-07-29T17:28:55.965Z,4.10
2022-07-29T17:31:23.425Z,3.90
2022-07-29T17:33:50.345Z,4.20
2022-07-29T17:36:26.921Z,4.25
2022-07-29T17:38:56.332Z,3.78
2022-07-29T17:41:24.274Z,3.83
2022-07-29T17:43:51.407Z,3.63
2022-07-29T17:46:19.153Z,3.90
2022-07-29T17:48:45.997Z,3.92
2022-07-29T17:51:12.846Z,3.90
2022-07-29T17:53:40.026Z,3.90
2022-07-29T17:56:07.060Z,4.10
2022-07-29T17:58:34.561Z,4.20
2022-07-29T18:01:01.294Z,3.88
2022-07-29T18:03:28.042Z,4.00
2022-07-29T18:05:54.737Z,4.32
2022-07-29T18:08:21.378Z,4.00
2022-07-29T18:10:48.173Z,4.22
2022-07-29T18:13:16.364Z,3.92
2022-07-29T18:15:45.236Z,4.20
2022-07-29T18:18:13.424Z,4.22
2022-07-29T18:20:41.068Z,4.10
2022-07-29T18:23:07.765Z,3.92
2022-07-29T18:25:34.673Z,4.30
2022-07-29T18:28:01.517Z,4.18
2022-07-29T18:30:29.722Z,4.40
2022-07-29T18:33:19.742Z,4.57
2022-07-29T18:35:44.734Z,4.25
2022-07-29T18:38:11.541Z,4.70
2022-07-29T18:40:40.031Z,4.22
2022-07-29T18:43:07.247Z,4.10
2022-07-29T18:45:34.152Z,4.33
2022-07-29T18:48:02.241Z,4.50
2022-07-29T18:50:30.014Z,4.45
2022-07-29T18:52:58.661Z,4.47
2022-07-29T18:55:26.191Z,4.43
2022-07-29T18:57:54.301Z,4.80
2022-07-29T19:00:22.767Z,4.90
2022-07-29T19:02:49.941Z,4.55
2022-07-29T19:05:16.692Z,5.10
2022-07-29T19:07:43.615Z,5.00
2022-07-29T19:10:11.213Z,5.40
2022-07-29T19:12:38.002Z,4.80
2022-07-29T19:15:04.944Z,4.53
2022-07-29T19:17:31.608Z,4.60
2022-07-29T19:19:58.312Z,4.80
2022-07-29T19:22:25.057Z,4.47
2022-07-29T19:24:51.816Z,4.85
2022-07-29T19:27:18.879Z,4.78
2022-07-29T19:29:45.896Z,4.55
2022-07-29T19:32:13.485Z,5.00
2022-07-29T19:35:10.381Z,4.80
2022-07-29T19:37:37.458Z,4.70
2022-07-29T19:40:05.666Z,5.32
2022-07-29T19:42:32.459Z,4.90
2022-07-29T19:44:59.197Z,4.97
2022-07-29T19:47:25.988Z,4.87
2022-07-29T19:49:52.784Z,5.03
2022-07-29T19:52:19.511Z,5.20
2022-07-29T19:54:46.268Z,5.07
2022-07-29T19:57:13.012Z,5.10
2022-07-29T19:59:41.165Z,4.90
2022-07-29T20:02:10.888Z,5.18
2022-07-29T20:04:38.670Z,5.30
2022-07-29T20:07:06.615Z,5.05
2022-07-29T20:09:33.415Z,5.00
2022-07-29T20:12:00.345Z,5.77
2022-07-29T20:14:27.042Z,5.45
2022-07-29T20:16:54.369Z,5.22
2022-07-29T20:19:21.427Z,5.40
2022-07-29T20:21:48.227Z,5.82
2022-07-29T20:24:14.970Z,5.30
2022-07-29T20:26:41.740Z,5.47
2022-07-29T20:29:09.084Z,5.60
2022-07-29T20:31:36.034Z,5.68
2022-07-29T20:34:04.192Z,5.68
2022-07-29T20:36:31.067Z,5.90
2022-07-29T20:38:59.950Z,6.22
2022-07-29T20:41:27.233Z,6.10
2022-07-29T20:43:53.978Z,6.40
2022-07-29T20:46:21.234Z,6.25
2022-07-29T20:48:48.153Z,6.00
2022-07-29T20:51:14.986Z,5.70
2022-07-29T20:53:41.833Z,6.00
2022-07-29T20:56:08.794Z,6.20
2022-07-29T20:58:36.534Z,6.30
2022-07-29T21:01:04.115Z,6.63
2022-07-29T21:03:31.606Z,6.43
2022-07-29T21:05:59.514Z,6.38
2022-07-29T21:08:27.237Z,7.10
2022-07-29T21:10:54.710Z,6.50
2022-07-29T21:13:22.974Z,6.30
2022-07-29T21:15:51.693Z,6.95
2022-07-29T21:18:32.666Z,7.07
2022-07-29T21:21:00.871Z,6.72
2022-07-29T21:23:28.170Z,6.60
2022-07-29T21:25:55.231Z,5.93
2022-07-29T21:28:40.813Z,6.07
2022-07-29T21:31:14.822Z,7.13
2022-07-29T21:33:45.887Z,6.40
2022-07-29T21:36:47.661Z,6.20
2022-07-29T21:39:06.736Z,6.03
2022-07-29T21:41:34.291Z,6.60
2022-07-29T21:44:01.442Z,6.55
2022-07-29T21:46:28.385Z,6.50
2022-07-29T21:48:55.138Z,6.22
2022-07-29T21:51:22.054Z,6.60
2022-07-29T21:53:48.822Z,6.38
2022-07-29T21:56:15.569Z,7.00
2022-07-29T21:58:44.791Z,6.95
2022-07-29T22:01:11.555Z,7.15
2022-07-29T22:03:38.351Z,7.10
2022-07-29T22:06:05.059Z,6.70
2022-07-29T22:08:31.722Z,7.35
2022-07-29T22:10:58.363Z,7.28
2022-07-29T22:13:25.032Z,7.65
2022-07-29T22:15:51.822Z,7.70
2022-07-29T22:18:20.634Z,7.30
2022-07-29T22:20:49.489Z,7.97
2022-07-29T22:23:16.215Z,7.72
2022-07-29T22:25:43.030Z,8.13
2022-07-29T22:28:09.782Z,7.83
2022-07-29T22:30:36.526Z,7.72
2022-07-29T22:33:03.262Z,8.10
2022-07-29T22:35:29.971Z,8.07
2022-07-29T22:37:56.652Z,8.23
2022-07-29T22:40:23.397Z,8.03
2022-07-29T22:42:57.517Z,7.60
2022-07-29T22:45:24.335Z,8.20
2022-07-29T22:47:57.498Z,8.38
2022-07-29T22:50:26.571Z,8.55
2022-07-29T22:52:53.248Z,8.40
2022-07-29T22:55:20.137Z,8.45
2022-07-29T22:57:46.868Z,8.13
2022-07-29T23:00:14.166Z,7.80
2022-07-29T23:02:41.501Z,8.07
2022-07-29T23:05:11.580Z,7.77
2022-07-29T23:07:38.580Z,7.90
2022-07-29T23:10:05.758Z,8.32
2022-07-29T23:12:32.426Z,7.90
2022-07-29T23:14:59.111Z,8.55
2022-07-29T23:17:25.903Z,8.60
2022-07-29T23:19:52.581Z,8.85
2022-07-29T23:22:19.276Z,8.45
2022-07-29T23:24:45.988Z,9.13
2022-07-29T23:27:12.768Z,9.20
2022-07-29T23:29:40.148Z,8.50
2022-07-29T23:32:07.006Z,8.32
2022-07-29T23:34:33.673Z,8.88
2022-07-29T23:37:00.567Z,8.30
2022-07-29T23:39:27.482Z,8.88
2022-07-29T23:41:54.136Z,9.10
2022-07-29T23:44:20.984Z,9.07
2022-07-29T23:46:47.694Z,8.50
2022-07-29T23:49:14.561Z,8.48
2022-07-29T23:51:41.289Z,8.60
2022-07-29T23:54:08.017Z,9.67
2022-07-29T23:56:34.667Z,9.43
2022-07-29T23:59:01.289Z,9.73
